Flight Track Log - Related Links

Times and Time Zones

All times are in EDT time to prevent confusion due to time zone crossing. See the TAM3909 flight status page for this flight to view local times or setup timezone preferences in your user account.

Time Position Orientation Groundspeed Altitude Reporting Facility
EDT Latitude Longitude Course Direction KTS MPH feet Rate Location/Type
Mon 06:31:00 AM -23.0744 -43.9270 257° West  Level Estimated
Mon 06:32:00 AM -23.0891 -43.9965 257° West  Level Estimated
Mon 06:33:00 AM -23.1038 -44.0661 257° West  Level Estimated
Mon 06:34:00 AM -23.1185 -44.1356 257° West  Level Estimated
Mon 06:35:00 AM -23.1331 -44.2052 257° West  Level Estimated
Mon 06:36:00 AM -23.1477 -44.2748 257° West  Level Estimated
Mon 06:37:00 AM -23.1623 -44.3444 257° West  Level Estimated
Mon 06:38:00 AM -23.1768 -44.4140 257° West  Level Estimated
Mon 06:39:00 AM -23.1913 -44.4837 257° West  Level Estimated
Mon 06:40:00 AM -23.2058 -44.5533 257° West  Level Estimated
Mon 06:41:00 AM -23.2202 -44.6230 257° West  Level Estimated
Mon 06:42:00 AM -23.2346 -44.6927 257° West  Level Estimated
Mon 06:43:00 AM -23.2490 -44.7624 257° West  Level Estimated
Mon 06:44:00 AM -23.2633 -44.8321 257° West  Level Estimated
Mon 06:45:00 AM -23.2777 -44.9018 257° West  Level Estimated
Mon 06:46:00 AM -23.2920 -44.9715 257° West  Level Estimated
Mon 06:47:00 AM -23.3062 -45.0413 257° West  Level Estimated
Mon 06:48:00 AM -23.3204 -45.1111 257° West  Level Estimated
Mon 06:49:00 AM -23.3347 -45.1809 257° West  Level Estimated
Mon 06:50:00 AM -23.3488 -45.2507 258° West  Level Estimated
Mon 06:51:00 AM -23.3630 -45.3205 258° West  Level Estimated
Mon 06:52:00 AM -23.3771 -45.3903 258° West  Level Estimated
Mon 06:53:00 AM -23.3911 -45.4602 258° West  Level Estimated
Mon 06:54:00 AM -23.4052 -45.5300 258° West  Level Estimated
Mon 06:55:00 AM -23.4192 -45.5999 258° West  Level Estimated
Mon 06:56:00 AM -23.4332 -45.6698 258° West  Level Estimated
Mon 06:57:00 AM -23.4471 -45.7397 258° West  Level Estimated
Mon 06:58:00 AM -23.4610 -45.8096 258° West  Level Estimated
Mon 06:59:00 AM -23.4749 -45.8796 258° West  Level Estimated
Mon 07:00:00 AM -23.4888 -45.9495 258° West  Level Estimated
Mon 07:01:00 AM -23.5026 -46.0195 258° West  Level Estimated
Mon 07:02:00 AM -23.5164 -46.0895 258° West  Level Estimated
Mon 07:03:00 AM -23.5302 -46.1595 258° West  Level Estimated
Mon 07:04:00 AM -23.5439 -46.2295 258° West  Level Estimated
Mon 07:05:00 AM -23.5576 -46.2995 258° West  Level Estimated
Mon 07:06:00 AM -23.5713 -46.3695 258° West  Level Estimated
Mon 07:07:00 AM -23.5849 -46.4396 258° West  Level Estimated
Mon 07:08:00 AM -23.5985 -46.5097 258° West  Level Estimated
Mon 07:09:00 AM -23.6121 -46.5797 258° West  Level Estimated
Mon 07:10:00 AM -23.6256 -46.6498 258° West  Level Estimated
Mon 07:11:00 AM -23.6267 -46.6554 258° West  Level Estimated
Mon 07:12:00 AM -23.6267 -46.6554 114° Southeast  Level Estimated
Mon 07:13:00 AM -23.6267 -46.6554 114° Southeast  Level Estimated
Mon 07:14:00 AM -23.6267 -46.6554 114° Southeast  Level Estimated
Mon 07:15:00 AM -23.6267 -46.6554 114° Southeast  Level Estimated
Mon 07:16:00 AM -23.6267 -46.6554 114° Southeast  Level Estimated
Mon 07:17:00 AM -23.6267 -46.6554 114° Southeast  Level Estimated
Mon 07:18:00 AM -23.6267 -46.6554 114° Southeast  Level Estimated
Mon 07:19:00 AM -23.6267 -46.6554 114° Southeast  Level Estimated
Mon 07:20:00 AM -23.6267 -46.6554 114° Southeast  Level Estimated
Mon 07:21:00 AM -23.6267 -46.6554 114° Southeast  Level Estimated
Mon 07:22:00 AM -23.6267 -46.6554 114° Southeast  Level Estimated
Mon 07:23:00 AM -23.6267 -46.6554 114° Southeast  Level Estimated
Mon 07:24:00 AM -23.6267 -46.6554 114° Southeast  Level Estimated
Mon 07:25:00 AM -23.6267 -46.6554 114° Southeast  Level Estimated
Mon 07:26:00 AM -23.6267 -46.6554 114° Southeast  Level Estimated

Login

Don't have an account? Register now (free) for customized features, flight alerts, and more!